<?xml version='1.0' encoding='UTF-8'?><gpx version="1.1" creator="JPX - https://github.com/jenetics/jpx" xmlns="http://www.topografix.com/GPX/1/1"><trk><trkseg><trkpt lat="43.716362" lon="10.6250696"><ele>9.000000000000002</ele><time>2026-04-26T18:12:20.212Z</time></trkpt><trkpt lat="43.7163712" lon="10.6251584"><ele>9.0</ele><time>2026-04-26T18:12:28.212Z</time></trkpt><trkpt lat="43.7164324" lon="10.6251957"><ele>9.0</ele><time>2026-04-26T18:12:34.212Z</time></trkpt><trkpt lat="43.7165105" lon="10.625206"><ele>9.0</ele><time>2026-04-26T18:12:38.212Z</time></trkpt><trkpt lat="43.716553" lon="10.6253068"><ele>9.0</ele><time>2026-04-26T18:12:42.212Z</time></trkpt><trkpt lat="43.7165607" lon="10.6254142"><ele>9.000000000000002</ele><time>2026-04-26T18:12:45.212Z</time></trkpt><trkpt lat="43.7165764" lon="10.6254996"><ele>9.0</ele><time>2026-04-26T18:12:47.212Z</time></trkpt><trkpt lat="43.7165897" lon="10.6255903"><ele>9.0</ele><time>2026-04-26T18:12:49.212Z</time></trkpt><trkpt lat="43.716595" lon="10.6256936"><ele>9.0</ele><time>2026-04-26T18:12:51.211Z</time></trkpt><trkpt lat="43.7166047" lon="10.6258036"><ele>9.0</ele><time>2026-04-26T18:12:53.213Z</time></trkpt><trkpt lat="43.7166176" lon="10.6259165"><ele>9.0</ele><time>2026-04-26T18:12:55.212Z</time></trkpt><trkpt lat="43.7166263" lon="10.6260359"><ele>9.0</ele><time>2026-04-26T18:12:57.213Z</time></trkpt><trkpt lat="43.7166356" lon="10.6261481"><ele>9.0</ele><time>2026-04-26T18:12:59.212Z</time></trkpt><trkpt lat="43.7166253" lon="10.6262493"><ele>8.833333333333334</ele><time>2026-04-26T18:13:01.212Z</time></trkpt><trkpt lat="43.7165873" lon="10.6263494"><ele>8.666666666666666</ele><time>2026-04-26T18:13:03.212Z</time></trkpt><trkpt lat="43.7164957" lon="10.6263681"><ele>8.5</ele><time>2026-04-26T18:13:05.212Z</time></trkpt><trkpt lat="43.7164096" lon="10.6263771"><ele>8.333333333333332</ele><time>2026-04-26T18:13:07.212Z</time></trkpt><trkpt lat="43.71632" lon="10.6263716"><ele>8.166666666666666</ele><time>2026-04-26T18:13:09.212Z</time></trkpt><trkpt lat="43.7162275" lon="10.6263696"><ele>8.0</ele><time>2026-04-26T18:13:11.211Z</time></trkpt><trkpt lat="43.7161345" lon="10.6263665"><ele>8.600000000000001</ele><time>2026-04-26T18:13:13.212Z</time></trkpt><trkpt lat="43.7160447" lon="10.6263742"><ele>9.200000000000001</ele><time>2026-04-26T18:13:15.211Z</time></trkpt><trkpt lat="43.7159538" lon="10.6263865"><ele>9.8</ele><time>2026-04-26T18:13:17.21Z</time></trkpt><trkpt lat="43.7158654" lon="10.6263969"><ele>10.4</ele><time>2026-04-26T18:13:19.211Z</time></trkpt><trkpt lat="43.7157737" lon="10.6264037"><ele>11.0</ele><time>2026-04-26T18:13:21.211Z</time></trkpt><trkpt lat="43.7156841" lon="10.6264143"><ele>11.0</ele><time>2026-04-26T18:13:23.211Z</time></trkpt><trkpt lat="43.7155922" lon="10.6264212"><ele>11.0</ele><time>2026-04-26T18:13:25.211Z</time></trkpt><trkpt lat="43.7155047" lon="10.6264244"><ele>11.0</ele><time>2026-04-26T18:13:27.21Z</time></trkpt><trkpt lat="43.7154189" lon="10.6264401"><ele>11.0</ele><time>2026-04-26T18:13:29.21Z</time></trkpt><trkpt lat="43.7153377" lon="10.6264739"><ele>11.0</ele><time>2026-04-26T18:13:31.21Z</time></trkpt><trkpt lat="43.7152529" lon="10.626502"><ele>11.0</ele><time>2026-04-26T18:13:33.211Z</time></trkpt><trkpt lat="43.7151604" lon="10.6265159"><ele>11.0</ele><time>2026-04-26T18:13:35.211Z</time></trkpt><trkpt lat="43.7150662" lon="10.6265259"><ele>11.0</ele><time>2026-04-26T18:13:37.21Z</time></trkpt><trkpt lat="43.7149716" lon="10.6265415"><ele>11.0</ele><time>2026-04-26T18:13:39.211Z</time></trkpt><trkpt lat="43.7148901" lon="10.6265511"><ele>11.0</ele><time>2026-04-26T18:13:41.211Z</time></trkpt><trkpt lat="43.714825" lon="10.6265639"><ele>11.0</ele><time>2026-04-26T18:13:43.21Z</time></trkpt><trkpt lat="43.7147822" lon="10.6266311"><ele>11.0</ele><time>2026-04-26T18:13:46.21Z</time></trkpt><trkpt lat="43.7147882" lon="10.6267203"><ele>11.0</ele><time>2026-04-26T18:13:48.211Z</time></trkpt><trkpt lat="43.7148068" lon="10.6268189"><ele>11.0</ele><time>2026-04-26T18:13:50.21Z</time></trkpt><trkpt lat="43.7148413" lon="10.6269179"><ele>11.0</ele><time>2026-04-26T18:13:52.21Z</time></trkpt><trkpt lat="43.7148758" lon="10.6270186"><ele>11.0</ele><time>2026-04-26T18:13:54.211Z</time></trkpt><trkpt lat="43.7149076" lon="10.6271278"><ele>11.0</ele><time>2026-04-26T18:13:56.211Z</time></trkpt><trkpt lat="43.714943" lon="10.6272439"><ele>11.0</ele><time>2026-04-26T18:13:58.21Z</time></trkpt><trkpt lat="43.7149792" lon="10.6273586"><ele>11.0</ele><time>2026-04-26T18:14:00.21Z</time></trkpt><trkpt lat="43.7150176" lon="10.6274733"><ele>11.0</ele><time>2026-04-26T18:14:02.211Z</time></trkpt><trkpt lat="43.7150497" lon="10.6275865"><ele>11.0</ele><time>2026-04-26T18:14:04.212Z</time></trkpt><trkpt lat="43.7150904" lon="10.6277056"><ele>11.0</ele><time>2026-04-26T18:14:06.21Z</time></trkpt><trkpt lat="43.7151235" lon="10.6278249"><ele>11.0</ele><time>2026-04-26T18:14:08.211Z</time></trkpt><trkpt lat="43.7151587" lon="10.6279474"><ele>11.0</ele><time>2026-04-26T18:14:10.21Z</time></trkpt><trkpt lat="43.7151973" lon="10.6280642"><ele>11.0</ele><time>2026-04-26T18:14:12.21Z</time></trkpt><trkpt lat="43.7152381" lon="10.6281867"><ele>11.0</ele><time>2026-04-26T18:14:14.211Z</time></trkpt><trkpt lat="43.7152799" lon="10.628312"><ele>11.0</ele><time>2026-04-26T18:14:16.211Z</time></trkpt><trkpt lat="43.7153166" lon="10.6284296"><ele>11.0</ele><time>2026-04-26T18:14:18.211Z</time></trkpt><trkpt lat="43.7153513" lon="10.6285558"><ele>10.600000000000001</ele><time>2026-04-26T18:14:20.21Z</time></trkpt><trkpt lat="43.7153831" lon="10.6286833"><ele>10.200000000000001</ele><time>2026-04-26T18:14:22.21Z</time></trkpt><trkpt lat="43.7154229" lon="10.6288009"><ele>9.8</ele><time>2026-04-26T18:14:24.212Z</time></trkpt><trkpt lat="43.7154607" lon="10.6289214"><ele>9.4</ele><time>2026-04-26T18:14:26.211Z</time></trkpt><trkpt lat="43.7154996" lon="10.629041"><ele>9.0</ele><time>2026-04-26T18:14:28.21Z</time></trkpt><trkpt lat="43.7155353" lon="10.6291553"><ele>9.0</ele><time>2026-04-26T18:14:30.21Z</time></trkpt><trkpt lat="43.7155695" lon="10.62926"><ele>9.0</ele><time>2026-04-26T18:14:32.21Z</time></trkpt><trkpt lat="43.7156035" lon="10.6293823"><ele>9.0</ele><time>2026-04-26T18:14:34.209Z</time></trkpt><trkpt lat="43.7156413" lon="10.6294946"><ele>9.0</ele><time>2026-04-26T18:14:36.209Z</time></trkpt><trkpt lat="43.7156836" lon="10.629623"><ele>9.0</ele><time>2026-04-26T18:14:38.21Z</time></trkpt><trkpt lat="43.715719" lon="10.6297449"><ele>9.0</ele><time>2026-04-26T18:14:40.21Z</time></trkpt><trkpt lat="43.7157591" lon="10.6298701"><ele>9.0</ele><time>2026-04-26T18:14:42.209Z</time></trkpt><trkpt lat="43.7157967" lon="10.629997"><ele>9.0</ele><time>2026-04-26T18:14:44.209Z</time></trkpt><trkpt lat="43.7158386" lon="10.6301211"><ele>9.0</ele><time>2026-04-26T18:14:46.21Z</time></trkpt><trkpt lat="43.7158808" lon="10.6302455"><ele>9.0</ele><time>2026-04-26T18:14:48.211Z</time></trkpt><trkpt lat="43.715924" lon="10.6303727"><ele>9.0</ele><time>2026-04-26T18:14:50.209Z</time></trkpt><trkpt lat="43.7159637" lon="10.6305066"><ele>9.0</ele><time>2026-04-26T18:14:52.211Z</time></trkpt><trkpt lat="43.716005" lon="10.6306381"><ele>9.0</ele><time>2026-04-26T18:14:54.209Z</time></trkpt><trkpt lat="43.7160449" lon="10.6307673"><ele>9.0</ele><time>2026-04-26T18:14:56.21Z</time></trkpt><trkpt lat="43.7160898" lon="10.6309021"><ele>9.0</ele><time>2026-04-26T18:14:58.21Z</time></trkpt><trkpt lat="43.7161277" lon="10.6310381"><ele>9.0</ele><time>2026-04-26T18:15:00.209Z</time></trkpt><trkpt lat="43.7161726" lon="10.6311762"><ele>9.0</ele><time>2026-04-26T18:15:02.21Z</time></trkpt><trkpt lat="43.7162171" lon="10.6313184"><ele>9.0</ele><time>2026-04-26T18:15:04.21Z</time></trkpt><trkpt lat="43.7162566" lon="10.6314611"><ele>9.0</ele><time>2026-04-26T18:15:06.209Z</time></trkpt><trkpt lat="43.7162992" lon="10.6315952"><ele>9.0</ele><time>2026-04-26T18:15:08.21Z</time></trkpt><trkpt lat="43.716342" lon="10.6317333"><ele>9.0</ele><time>2026-04-26T18:15:10.21Z</time></trkpt><trkpt lat="43.7163813" lon="10.631871"><ele>9.0</ele><time>2026-04-26T18:15:12.21Z</time></trkpt><trkpt lat="43.716421" lon="10.6320095"><ele>9.0</ele><time>2026-04-26T18:15:14.21Z</time></trkpt><trkpt lat="43.7164582" lon="10.6321525"><ele>9.0</ele><time>2026-04-26T18:15:16.211Z</time></trkpt><trkpt lat="43.7164971" lon="10.6322907"><ele>9.0</ele><time>2026-04-26T18:15:18.209Z</time></trkpt><trkpt lat="43.716541" lon="10.6324272"><ele>9.6</ele><time>2026-04-26T18:15:20.211Z</time></trkpt><trkpt lat="43.7165806" lon="10.6325521"><ele>10.2</ele><time>2026-04-26T18:15:22.21Z</time></trkpt><trkpt lat="43.7166242" lon="10.6326785"><ele>10.799999999999999</ele><time>2026-04-26T18:15:24.21Z</time></trkpt><trkpt lat="43.7166715" lon="10.6328156"><ele>11.4</ele><time>2026-04-26T18:15:26.21Z</time></trkpt><trkpt lat="43.7167128" lon="10.6329505"><ele>12.0</ele><time>2026-04-26T18:15:28.21Z</time></trkpt><trkpt lat="43.7167556" lon="10.6330826"><ele>12.0</ele><time>2026-04-26T18:15:30.21Z</time></trkpt><trkpt lat="43.7167992" lon="10.6332162"><ele>12.0</ele><time>2026-04-26T18:15:32.209Z</time></trkpt><trkpt lat="43.7168416" lon="10.6333465"><ele>12.0</ele><time>2026-04-26T18:15:34.209Z</time></trkpt><trkpt lat="43.7168873" lon="10.6334776"><ele>12.0</ele><time>2026-04-26T18:15:36.209Z</time></trkpt><trkpt lat="43.7169315" lon="10.6336125"><ele>12.0</ele><time>2026-04-26T18:15:38.21Z</time></trkpt><trkpt lat="43.7169692" lon="10.6337413"><ele>11.6</ele><time>2026-04-26T18:15:40.209Z</time></trkpt><trkpt lat="43.7170108" lon="10.6338622"><ele>11.2</ele><time>2026-04-26T18:15:42.21Z</time></trkpt><trkpt lat="43.7170582" lon="10.6339863"><ele>10.8</ele><time>2026-04-26T18:15:44.209Z</time></trkpt><trkpt lat="43.717107" lon="10.6341188"><ele>10.4</ele><time>2026-04-26T18:15:46.21Z</time></trkpt><trkpt lat="43.7171518" lon="10.6342483"><ele>10.0</ele><time>2026-04-26T18:15:48.209Z</time></trkpt><trkpt lat="43.7171958" lon="10.634379"><ele>9.8</ele><time>2026-04-26T18:15:50.209Z</time></trkpt><trkpt lat="43.7172419" lon="10.6345136"><ele>9.6</ele><time>2026-04-26T18:15:52.208Z</time></trkpt><trkpt lat="43.7172932" lon="10.6346442"><ele>9.4</ele><time>2026-04-26T18:15:54.209Z</time></trkpt><trkpt lat="43.717335" lon="10.6347735"><ele>9.2</ele><time>2026-04-26T18:15:56.208Z</time></trkpt><trkpt lat="43.7173858" lon="10.6349055"><ele>9.0</ele><time>2026-04-26T18:15:58.208Z</time></trkpt><trkpt lat="43.7174359" lon="10.6350348"><ele>9.0</ele><time>2026-04-26T18:16:00.208Z</time></trkpt><trkpt lat="43.7174864" lon="10.6351728"><ele>9.0</ele><time>2026-04-26T18:16:02.209Z</time></trkpt><trkpt lat="43.7175324" lon="10.6353184"><ele>9.0</ele><time>2026-04-26T18:16:04.208Z</time></trkpt><trkpt lat="43.7175869" lon="10.6354494"><ele>9.0</ele><time>2026-04-26T18:16:06.208Z</time></trkpt><trkpt lat="43.7176399" lon="10.6355885"><ele>9.0</ele><time>2026-04-26T18:16:08.208Z</time></trkpt><trkpt lat="43.7176893" lon="10.6357168"><ele>9.0</ele><time>2026-04-26T18:16:10.209Z</time></trkpt><trkpt lat="43.7177318" lon="10.6358388"><ele>9.0</ele><time>2026-04-26T18:16:12.208Z</time></trkpt><trkpt lat="43.7177713" lon="10.635951"><ele>9.0</ele><time>2026-04-26T18:16:14.209Z</time></trkpt><trkpt lat="43.7178071" lon="10.6360616"><ele>9.0</ele><time>2026-04-26T18:16:16.209Z</time></trkpt><trkpt lat="43.7178487" lon="10.6361606"><ele>9.0</ele><time>2026-04-26T18:16:18.209Z</time></trkpt><trkpt lat="43.717899" lon="10.6362666"><ele>9.0</ele><time>2026-04-26T18:16:20.208Z</time></trkpt><trkpt lat="43.7179482" lon="10.6363861"><ele>9.0</ele><time>2026-04-26T18:16:22.208Z</time></trkpt><trkpt lat="43.7179971" lon="10.6365137"><ele>9.0</ele><time>2026-04-26T18:16:24.208Z</time></trkpt><trkpt lat="43.7180462" lon="10.6366455"><ele>9.0</ele><time>2026-04-26T18:16:26.209Z</time></trkpt><trkpt lat="43.7180948" lon="10.6367836"><ele>9.0</ele><time>2026-04-26T18:16:28.209Z</time></trkpt><trkpt lat="43.7181469" lon="10.6369214"><ele>9.0</ele><time>2026-04-26T18:16:30.209Z</time></trkpt><trkpt lat="43.7181997" lon="10.6370582"><ele>9.0</ele><time>2026-04-26T18:16:32.21Z</time></trkpt><trkpt lat="43.7182529" lon="10.6371952"><ele>9.0</ele><time>2026-04-26T18:16:34.208Z</time></trkpt><trkpt lat="43.7183038" lon="10.637338"><ele>9.25</ele><time>2026-04-26T18:16:36.209Z</time></trkpt><trkpt lat="43.7183567" lon="10.6374769"><ele>9.5</ele><time>2026-04-26T18:16:38.21Z</time></trkpt><trkpt lat="43.7184089" lon="10.6376143"><ele>9.75</ele><time>2026-04-26T18:16:40.208Z</time></trkpt><trkpt lat="43.7184647" lon="10.6377491"><ele>10.0</ele><time>2026-04-26T18:16:42.208Z</time></trkpt><trkpt lat="43.7185237" lon="10.6378846"><ele>9.8</ele><time>2026-04-26T18:16:44.208Z</time></trkpt><trkpt lat="43.7185828" lon="10.6380166"><ele>9.6</ele><time>2026-04-26T18:16:46.21Z</time></trkpt><trkpt lat="43.7186497" lon="10.6381381"><ele>9.4</ele><time>2026-04-26T18:16:48.21Z</time></trkpt><trkpt lat="43.71868" lon="10.6382844"><ele>9.2</ele><time>2026-04-26T18:16:50.21Z</time></trkpt><trkpt lat="43.7186319" lon="10.6384183"><ele>9.0</ele><time>2026-04-26T18:16:52.209Z</time></trkpt><trkpt lat="43.7185798" lon="10.6385492"><ele>9.0</ele><time>2026-04-26T18:16:54.208Z</time></trkpt><trkpt lat="43.7185228" lon="10.6386797"><ele>9.0</ele><time>2026-04-26T18:16:56.208Z</time></trkpt><trkpt lat="43.7184666" lon="10.6388124"><ele>9.0</ele><time>2026-04-26T18:16:58.209Z</time></trkpt><trkpt lat="43.7184126" lon="10.6389484"><ele>9.0</ele><time>2026-04-26T18:17:00.208Z</time></trkpt><trkpt lat="43.7183666" lon="10.6390978"><ele>9.0</ele><time>2026-04-26T18:17:02.208Z</time></trkpt><trkpt lat="43.7183158" lon="10.63923"><ele>9.0</ele><time>2026-04-26T18:17:04.208Z</time></trkpt><trkpt lat="43.7182659" lon="10.6393733"><ele>9.0</ele><time>2026-04-26T18:17:06.208Z</time></trkpt><trkpt lat="43.7182146" lon="10.6395085"><ele>9.0</ele><time>2026-04-26T18:17:08.207Z</time></trkpt><trkpt lat="43.7181676" lon="10.6396479"><ele>9.0</ele><time>2026-04-26T18:17:10.207Z</time></trkpt><trkpt lat="43.7181185" lon="10.6397842"><ele>9.0</ele><time>2026-04-26T18:17:12.208Z</time></trkpt><trkpt lat="43.7180701" lon="10.6399161"><ele>9.0</ele><time>2026-04-26T18:17:14.207Z</time></trkpt><trkpt lat="43.7180228" lon="10.6400486"><ele>9.0</ele><time>2026-04-26T18:17:16.209Z</time></trkpt><trkpt lat="43.7179713" lon="10.6401781"><ele>9.0</ele><time>2026-04-26T18:17:18.207Z</time></trkpt><trkpt lat="43.7179271" lon="10.6403179"><ele>9.0</ele><time>2026-04-26T18:17:20.207Z</time></trkpt><trkpt lat="43.7178858" lon="10.6404556"><ele>9.0</ele><time>2026-04-26T18:17:22.207Z</time></trkpt><trkpt lat="43.7178508" lon="10.6405953"><ele>9.0</ele><time>2026-04-26T18:17:24.208Z</time></trkpt><trkpt lat="43.7178142" lon="10.640735"><ele>9.0</ele><time>2026-04-26T18:17:26.208Z</time></trkpt><trkpt lat="43.7177791" lon="10.6408776"><ele>9.0</ele><time>2026-04-26T18:17:28.208Z</time></trkpt><trkpt lat="43.7177414" lon="10.6410219"><ele>9.0</ele><time>2026-04-26T18:17:30.208Z</time></trkpt><trkpt lat="43.7177071" lon="10.6411722"><ele>9.25</ele><time>2026-04-26T18:17:32.207Z</time></trkpt><trkpt lat="43.717674" lon="10.6413205"><ele>9.5</ele><time>2026-04-26T18:17:34.208Z</time></trkpt><trkpt lat="43.7176359" lon="10.6414701"><ele>9.75</ele><time>2026-04-26T18:17:36.208Z</time></trkpt><trkpt lat="43.7175856" lon="10.6416158"><ele>10.0</ele><time>2026-04-26T18:17:38.207Z</time></trkpt><trkpt lat="43.7175381" lon="10.6417682"><ele>10.0</ele><time>2026-04-26T18:17:40.208Z</time></trkpt><trkpt lat="43.7174843" lon="10.641911"><ele>10.0</ele><time>2026-04-26T18:17:42.208Z</time></trkpt><trkpt lat="43.7174292" lon="10.642051"><ele>10.0</ele><time>2026-04-26T18:17:44.208Z</time></trkpt><trkpt lat="43.7173663" lon="10.6421813"><ele>10.0</ele><time>2026-04-26T18:17:46.207Z</time></trkpt><trkpt lat="43.7173134" lon="10.642318"><ele>9.8</ele><time>2026-04-26T18:17:48.208Z</time></trkpt><trkpt lat="43.7172601" lon="10.6424601"><ele>9.6</ele><time>2026-04-26T18:17:50.208Z</time></trkpt><trkpt lat="43.7172053" lon="10.6425913"><ele>9.4</ele><time>2026-04-26T18:17:52.208Z</time></trkpt><trkpt lat="43.7171497" lon="10.6427252"><ele>9.2</ele><time>2026-04-26T18:17:54.207Z</time></trkpt><trkpt lat="43.7171003" lon="10.642861"><ele>9.0</ele><time>2026-04-26T18:17:56.208Z</time></trkpt><trkpt lat="43.7170448" lon="10.6429923"><ele>8.75</ele><time>2026-04-26T18:17:58.208Z</time></trkpt><trkpt lat="43.7169884" lon="10.6431259"><ele>8.5</ele><time>2026-04-26T18:18:00.207Z</time></trkpt><trkpt lat="43.7169437" lon="10.6432702"><ele>8.25</ele><time>2026-04-26T18:18:02.208Z</time></trkpt><trkpt lat="43.7169041" lon="10.6434192"><ele>8.0</ele><time>2026-04-26T18:18:04.208Z</time></trkpt><trkpt lat="43.7168682" lon="10.6435662"><ele>7.6000000000000005</ele><time>2026-04-26T18:18:06.208Z</time></trkpt><trkpt lat="43.7168321" lon="10.6437153"><ele>7.200000000000001</ele><time>2026-04-26T18:18:08.208Z</time></trkpt><trkpt lat="43.7167935" lon="10.6438455"><ele>6.8</ele><time>2026-04-26T18:18:10.207Z</time></trkpt><trkpt lat="43.7167459" lon="10.6439634"><ele>6.4</ele><time>2026-04-26T18:18:12.207Z</time></trkpt><trkpt lat="43.7166989" lon="10.6440859"><ele>6.0</ele><time>2026-04-26T18:18:14.208Z</time></trkpt><trkpt lat="43.7166476" lon="10.6442005"><ele>6.0</ele><time>2026-04-26T18:18:16.207Z</time></trkpt><trkpt lat="43.7165992" lon="10.6443238"><ele>6.0</ele><time>2026-04-26T18:18:18.208Z</time></trkpt><trkpt lat="43.7165472" lon="10.6444413"><ele>6.0</ele><time>2026-04-26T18:18:20.208Z</time></trkpt><trkpt lat="43.7165037" lon="10.6445651"><ele>6.0</ele><time>2026-04-26T18:18:22.207Z</time></trkpt><trkpt lat="43.7164559" lon="10.6446866"><ele>6.0</ele><time>2026-04-26T18:18:24.206Z</time></trkpt><trkpt lat="43.7164087" lon="10.6448118"><ele>6.199999999999999</ele><time>2026-04-26T18:18:26.208Z</time></trkpt><trkpt lat="43.7163553" lon="10.6449344"><ele>6.3999999999999995</ele><time>2026-04-26T18:18:28.208Z</time></trkpt><trkpt lat="43.7163056" lon="10.6450596"><ele>6.6</ele><time>2026-04-26T18:18:30.207Z</time></trkpt><trkpt lat="43.7162504" lon="10.6451827"><ele>6.8</ele><time>2026-04-26T18:18:32.206Z</time></trkpt><trkpt lat="43.7161931" lon="10.6453085"><ele>7.0</ele><time>2026-04-26T18:18:34.206Z</time></trkpt><trkpt lat="43.7161416" lon="10.6454337"><ele>7.0</ele><time>2026-04-26T18:18:36.206Z</time></trkpt><trkpt lat="43.7160895" lon="10.6455556"><ele>6.999999999999999</ele><time>2026-04-26T18:18:38.208Z</time></trkpt><trkpt lat="43.7160376" lon="10.6456878"><ele>6.999999999999999</ele><time>2026-04-26T18:18:40.206Z</time></trkpt><trkpt lat="43.715983" lon="10.6458197"><ele>7.0</ele><time>2026-04-26T18:18:42.207Z</time></trkpt><trkpt lat="43.7159294" lon="10.6459595"><ele>7.0</ele><time>2026-04-26T18:18:44.206Z</time></trkpt><trkpt lat="43.7158734" lon="10.6460954"><ele>6.8</ele><time>2026-04-26T18:18:46.207Z</time></trkpt><trkpt lat="43.7158167" lon="10.6462294"><ele>6.6</ele><time>2026-04-26T18:18:48.208Z</time></trkpt><trkpt lat="43.7157608" lon="10.6463654"><ele>6.3999999999999995</ele><time>2026-04-26T18:18:50.207Z</time></trkpt><trkpt lat="43.7157078" lon="10.6465011"><ele>6.199999999999999</ele><time>2026-04-26T18:18:52.207Z</time></trkpt><trkpt lat="43.7156588" lon="10.6466256"><ele>6.0</ele><time>2026-04-26T18:18:54.207Z</time></trkpt><trkpt lat="43.7156074" lon="10.6467538"><ele>6.0</ele><time>2026-04-26T18:18:56.208Z</time></trkpt><trkpt lat="43.7155612" lon="10.6468822"><ele>6.0</ele><time>2026-04-26T18:18:58.207Z</time></trkpt><trkpt lat="43.7155135" lon="10.6470071"><ele>6.0</ele><time>2026-04-26T18:19:00.207Z</time></trkpt><trkpt lat="43.7154619" lon="10.6471307"><ele>6.0</ele><time>2026-04-26T18:19:02.207Z</time></trkpt><trkpt lat="43.7154069" lon="10.647257"><ele>6.0</ele><time>2026-04-26T18:19:04.206Z</time></trkpt><trkpt lat="43.7153501" lon="10.6473807"><ele>6.0</ele><time>2026-04-26T18:19:06.207Z</time></trkpt><trkpt lat="43.715296" lon="10.6474986"><ele>6.0</ele><time>2026-04-26T18:19:08.207Z</time></trkpt><trkpt lat="43.7152404" lon="10.6476145"><ele>6.0</ele><time>2026-04-26T18:19:10.206Z</time></trkpt><trkpt lat="43.7151924" lon="10.6477407"><ele>6.0</ele><time>2026-04-26T18:19:12.206Z</time></trkpt><trkpt lat="43.7151423" lon="10.6478667"><ele>6.0</ele><time>2026-04-26T18:19:14.207Z</time></trkpt><trkpt lat="43.7150903" lon="10.6479876"><ele>6.199999999999999</ele><time>2026-04-26T18:19:16.206Z</time></trkpt><trkpt lat="43.7150411" lon="10.6481122"><ele>6.3999999999999995</ele><time>2026-04-26T18:19:18.208Z</time></trkpt><trkpt lat="43.7149928" lon="10.6482424"><ele>6.6</ele><time>2026-04-26T18:19:20.207Z</time></trkpt><trkpt lat="43.7149405" lon="10.6483621"><ele>6.8</ele><time>2026-04-26T18:19:22.207Z</time></trkpt><trkpt lat="43.714895" lon="10.6484825"><ele>7.0</ele><time>2026-04-26T18:19:24.207Z</time></trkpt><trkpt lat="43.7148489" lon="10.6485976"><ele>6.6</ele><time>2026-04-26T18:19:26.207Z</time></trkpt><trkpt lat="43.7148024" lon="10.6487143"><ele>6.199999999999999</ele><time>2026-04-26T18:19:28.207Z</time></trkpt><trkpt lat="43.714754" lon="10.6488168"><ele>5.8</ele><time>2026-04-26T18:19:30.207Z</time></trkpt><trkpt lat="43.7147112" lon="10.6489428"><ele>5.4</ele><time>2026-04-26T18:19:32.207Z</time></trkpt><trkpt lat="43.7146562" lon="10.64906"><ele>5.0</ele><time>2026-04-26T18:19:34.206Z</time></trkpt><trkpt lat="43.7146094" lon="10.6491772"><ele>5.0</ele><time>2026-04-26T18:19:36.207Z</time></trkpt><trkpt lat="43.7145635" lon="10.649299"><ele>5.0</ele><time>2026-04-26T18:19:38.207Z</time></trkpt><trkpt lat="43.7145165" lon="10.6494158"><ele>5.0</ele><time>2026-04-26T18:19:40.207Z</time></trkpt><trkpt lat="43.7144701" lon="10.6495279"><ele>5.0</ele><time>2026-04-26T18:19:42.206Z</time></trkpt><trkpt lat="43.7144286" lon="10.649637"><ele>5.0</ele><time>2026-04-26T18:19:44.206Z</time></trkpt><trkpt lat="43.7143852" lon="10.6497396"><ele>6.0</ele><time>2026-04-26T18:19:46.205Z</time></trkpt><trkpt lat="43.7143384" lon="10.6498381"><ele>7.0</ele><time>2026-04-26T18:19:48.207Z</time></trkpt><trkpt lat="43.7142943" lon="10.6499329"><ele>8.0</ele><time>2026-04-26T18:19:50.206Z</time></trkpt><trkpt lat="43.7142515" lon="10.6500216"><ele>9.0</ele><time>2026-04-26T18:19:52.206Z</time></trkpt><trkpt lat="43.7142023" lon="10.6501022"><ele>10.0</ele><time>2026-04-26T18:19:54.206Z</time></trkpt><trkpt lat="43.7141522" lon="10.650184"><ele>11.0</ele><time>2026-04-26T18:19:56.205Z</time></trkpt><trkpt lat="43.7140985" lon="10.6502569"><ele>13.0</ele><time>2026-04-26T18:19:58.205Z</time></trkpt><trkpt lat="43.7140379" lon="10.6503159"><ele>15.0</ele><time>2026-04-26T18:20:00.207Z</time></trkpt><trkpt lat="43.7139506" lon="10.6503657"><ele>17.0</ele><time>2026-04-26T18:20:02.206Z</time></trkpt><trkpt lat="43.7138567" lon="10.6503952"><ele>19.0</ele><time>2026-04-26T18:20:04.206Z</time></trkpt><trkpt lat="43.7137706" lon="10.6503904"><ele>21.0</ele><time>2026-04-26T18:20:06.207Z</time></trkpt><trkpt lat="43.7136721" lon="10.6503618"><ele>20.2</ele><time>2026-04-26T18:20:08.206Z</time></trkpt><trkpt lat="43.7135686" lon="10.6503405"><ele>19.400000000000002</ele><time>2026-04-26T18:20:10.206Z</time></trkpt><trkpt lat="43.7134696" lon="10.650306"><ele>18.6</ele><time>2026-04-26T18:20:12.205Z</time></trkpt><trkpt lat="43.7133748" lon="10.6502637"><ele>17.8</ele><time>2026-04-26T18:20:14.207Z</time></trkpt><trkpt lat="43.7132818" lon="10.6502286"><ele>17.0</ele><time>2026-04-26T18:20:16.205Z</time></trkpt><trkpt lat="43.7132031" lon="10.6501817"><ele>16.333333333333336</ele><time>2026-04-26T18:20:18.206Z</time></trkpt><trkpt lat="43.7131303" lon="10.6501102"><ele>15.666666666666668</ele><time>2026-04-26T18:20:20.206Z</time></trkpt><trkpt lat="43.713088" lon="10.6500113"><ele>15.0</ele><time>2026-04-26T18:20:22.206Z</time></trkpt><trkpt lat="43.7130436" lon="10.6499086"><ele>14.333333333333332</ele><time>2026-04-26T18:20:24.205Z</time></trkpt><trkpt lat="43.713001" lon="10.6497999"><ele>13.666666666666666</ele><time>2026-04-26T18:20:26.205Z</time></trkpt><trkpt lat="43.712957" lon="10.6496985"><ele>13.0</ele><time>2026-04-26T18:20:28.206Z</time></trkpt><trkpt lat="43.7128975" lon="10.6495886"><ele>13.0</ele><time>2026-04-26T18:20:30.205Z</time></trkpt><trkpt lat="43.7128268" lon="10.6495071"><ele>13.0</ele><time>2026-04-26T18:20:32.205Z</time></trkpt><trkpt lat="43.7127391" lon="10.6494596"><ele>13.0</ele><time>2026-04-26T18:20:34.206Z</time></trkpt><trkpt lat="43.7126473" lon="10.6494313"><ele>13.0</ele><time>2026-04-26T18:20:36.206Z</time></trkpt><trkpt lat="43.7125593" lon="10.649395"><ele>13.0</ele><time>2026-04-26T18:20:38.205Z</time></trkpt><trkpt lat="43.712473" lon="10.6493671"><ele>12.999999999999998</ele><time>2026-04-26T18:20:40.206Z</time></trkpt><trkpt lat="43.7123915" lon="10.6493293"><ele>13.0</ele><time>2026-04-26T18:20:42.206Z</time></trkpt><trkpt lat="43.7123059" lon="10.6492962"><ele>13.0</ele><time>2026-04-26T18:20:44.205Z</time></trkpt><trkpt lat="43.7122225" lon="10.6492502"><ele>13.0</ele><time>2026-04-26T18:20:46.206Z</time></trkpt><trkpt lat="43.7121398" lon="10.6492127"><ele>12.999999999999998</ele><time>2026-04-26T18:20:48.206Z</time></trkpt><trkpt lat="43.7120592" lon="10.6491762"><ele>13.0</ele><time>2026-04-26T18:20:50.205Z</time></trkpt><trkpt lat="43.7119769" lon="10.6491547"><ele>13.666666666666666</ele><time>2026-04-26T18:20:52.206Z</time></trkpt><trkpt lat="43.7118924" lon="10.649152"><ele>14.333333333333332</ele><time>2026-04-26T18:20:54.205Z</time></trkpt><trkpt lat="43.7118097" lon="10.6491513"><ele>15.0</ele><time>2026-04-26T18:20:56.206Z</time></trkpt><trkpt lat="43.7117266" lon="10.6491519"><ele>15.666666666666668</ele><time>2026-04-26T18:20:58.206Z</time></trkpt><trkpt lat="43.7116453" lon="10.649157"><ele>16.333333333333336</ele><time>2026-04-26T18:21:00.205Z</time></trkpt><trkpt lat="43.7115655" lon="10.6491608"><ele>17.0</ele><time>2026-04-26T18:21:02.205Z</time></trkpt><trkpt lat="43.7114894" lon="10.6491593"><ele>17.0</ele><time>2026-04-26T18:21:04.204Z</time></trkpt><trkpt lat="43.711416" lon="10.6491624"><ele>17.0</ele><time>2026-04-26T18:21:06.204Z</time></trkpt><trkpt lat="43.7113488" lon="10.6491537"><ele>17.0</ele><time>2026-04-26T18:21:08.205Z</time></trkpt><trkpt lat="43.7112769" lon="10.6491463"><ele>17.0</ele><time>2026-04-26T18:21:10.205Z</time></trkpt><trkpt lat="43.7112011" lon="10.6491325"><ele>17.0</ele><time>2026-04-26T18:21:12.205Z</time></trkpt><trkpt lat="43.7111225" lon="10.6491174"><ele>17.0</ele><time>2026-04-26T18:21:14.205Z</time></trkpt><trkpt lat="43.7110402" lon="10.649111"><ele>17.0</ele><time>2026-04-26T18:21:16.205Z</time></trkpt><trkpt lat="43.7109568" lon="10.6490985"><ele>17.0</ele><time>2026-04-26T18:21:18.205Z</time></trkpt><trkpt lat="43.7108697" lon="10.6490908"><ele>17.0</ele><time>2026-04-26T18:21:20.204Z</time></trkpt><trkpt lat="43.7107817" lon="10.649083"><ele>17.0</ele><time>2026-04-26T18:21:22.204Z</time></trkpt><trkpt lat="43.7106948" lon="10.6490886"><ele>17.0</ele><time>2026-04-26T18:21:24.205Z</time></trkpt><trkpt lat="43.7106021" lon="10.6490764"><ele>17.0</ele><time>2026-04-26T18:21:26.204Z</time></trkpt><trkpt lat="43.7105131" lon="10.6490521"><ele>17.0</ele><time>2026-04-26T18:21:28.205Z</time></trkpt><trkpt lat="43.7104113" lon="10.6490116"><ele>17.0</ele><time>2026-04-26T18:21:30.204Z</time></trkpt><trkpt lat="43.7103146" lon="10.648947"><ele>17.0</ele><time>2026-04-26T18:21:32.205Z</time></trkpt><trkpt lat="43.7102302" lon="10.6488652"><ele>17.0</ele><time>2026-04-26T18:21:34.205Z</time></trkpt><trkpt lat="43.7101454" lon="10.6487743"><ele>17.0</ele><time>2026-04-26T18:21:36.206Z</time></trkpt><trkpt lat="43.7100604" lon="10.6486831"><ele>16.4</ele><time>2026-04-26T18:21:38.206Z</time></trkpt><trkpt lat="43.7099793" lon="10.648588"><ele>15.799999999999999</ele><time>2026-04-26T18:21:40.205Z</time></trkpt><trkpt lat="43.7098995" lon="10.6484955"><ele>15.2</ele><time>2026-04-26T18:21:42.205Z</time></trkpt><trkpt lat="43.7098221" lon="10.6484009"><ele>14.6</ele><time>2026-04-26T18:21:44.205Z</time></trkpt><trkpt lat="43.7097474" lon="10.6483074"><ele>14.0</ele><time>2026-04-26T18:21:46.205Z</time></trkpt><trkpt lat="43.7096716" lon="10.6482192"><ele>14.0</ele><time>2026-04-26T18:21:48.206Z</time></trkpt><trkpt lat="43.7095958" lon="10.6481268"><ele>13.999999999999998</ele><time>2026-04-26T18:21:50.205Z</time></trkpt><trkpt lat="43.7095205" lon="10.6480318"><ele>13.999999999999998</ele><time>2026-04-26T18:21:52.204Z</time></trkpt><trkpt lat="43.7094395" lon="10.6479279"><ele>14.0</ele><time>2026-04-26T18:21:54.205Z</time></trkpt><trkpt lat="43.7093601" lon="10.647823"><ele>14.0</ele><time>2026-04-26T18:21:56.205Z</time></trkpt><trkpt lat="43.7092753" lon="10.6477201"><ele>15.0</ele><time>2026-04-26T18:21:58.205Z</time></trkpt><trkpt lat="43.7091904" lon="10.6476066"><ele>16.0</ele><time>2026-04-26T18:22:00.205Z</time></trkpt><trkpt lat="43.7090984" lon="10.6474926"><ele>17.0</ele><time>2026-04-26T18:22:02.204Z</time></trkpt><trkpt lat="43.7089987" lon="10.647381"><ele>18.0</ele><time>2026-04-26T18:22:04.204Z</time></trkpt><trkpt lat="43.7089148" lon="10.6472511"><ele>18.0</ele><time>2026-04-26T18:22:06.206Z</time></trkpt><trkpt lat="43.7088718" lon="10.6471848"><ele>18.0</ele><time>2026-04-26T18:22:07.204Z</time></trkpt><trkpt lat="43.7087833" lon="10.6470649"><ele>18.0</ele><time>2026-04-26T18:22:09.206Z</time></trkpt><trkpt lat="43.7087352" lon="10.647004"><ele>18.0</ele><time>2026-04-26T18:22:10.205Z</time></trkpt><trkpt lat="43.7086587" lon="10.6468798"><ele>18.0</ele><time>2026-04-26T18:22:12.205Z</time></trkpt><trkpt lat="43.7085833" lon="10.6467539"><ele>18.6</ele><time>2026-04-26T18:22:14.205Z</time></trkpt><trkpt lat="43.7085022" lon="10.6466412"><ele>19.200000000000003</ele><time>2026-04-26T18:22:16.205Z</time></trkpt><trkpt lat="43.7084302" lon="10.6465482"><ele>19.8</ele><time>2026-04-26T18:22:18.205Z</time></trkpt><trkpt lat="43.7083768" lon="10.6464548"><ele>20.400000000000002</ele><time>2026-04-26T18:22:20.205Z</time></trkpt><trkpt lat="43.7083027" lon="10.6463502"><ele>21.0</ele><time>2026-04-26T18:22:22.204Z</time></trkpt><trkpt lat="43.7082233" lon="10.6462532"><ele>21.0</ele><time>2026-04-26T18:22:24.205Z</time></trkpt><trkpt lat="43.7081499" lon="10.6461528"><ele>21.0</ele><time>2026-04-26T18:22:26.205Z</time></trkpt><trkpt lat="43.708071" lon="10.646052"><ele>21.0</ele><time>2026-04-26T18:22:28.205Z</time></trkpt><trkpt lat="43.7079894" lon="10.6459489"><ele>21.0</ele><time>2026-04-26T18:22:30.204Z</time></trkpt><trkpt lat="43.7079042" lon="10.6458446"><ele>21.0</ele><time>2026-04-26T18:22:32.204Z</time></trkpt><trkpt lat="43.7078209" lon="10.6457354"><ele>21.25</ele><time>2026-04-26T18:22:34.204Z</time></trkpt><trkpt lat="43.7077361" lon="10.645632"><ele>21.5</ele><time>2026-04-26T18:22:36.203Z</time></trkpt><trkpt lat="43.7076534" lon="10.645528"><ele>21.75</ele><time>2026-04-26T18:22:38.204Z</time></trkpt><trkpt lat="43.7075667" lon="10.6454238"><ele>22.0</ele><time>2026-04-26T18:22:40.205Z</time></trkpt><trkpt lat="43.7074839" lon="10.6453053"><ele>20.0</ele><time>2026-04-26T18:22:42.204Z</time></trkpt><trkpt lat="43.7074071" lon="10.6451828"><ele>18.0</ele><time>2026-04-26T18:22:44.204Z</time></trkpt><trkpt lat="43.7073565" lon="10.6450422"><ele>16.0</ele><time>2026-04-26T18:22:46.204Z</time></trkpt><trkpt lat="43.7073118" lon="10.6449027"><ele>14.0</ele><time>2026-04-26T18:22:48.204Z</time></trkpt><trkpt lat="43.7072657" lon="10.6447659"><ele>14.0</ele><time>2026-04-26T18:22:50.205Z</time></trkpt><trkpt lat="43.707219" lon="10.6446279"><ele>13.999999999999998</ele><time>2026-04-26T18:22:52.205Z</time></trkpt><trkpt lat="43.7071724" lon="10.6444912"><ele>13.999999999999998</ele><time>2026-04-26T18:22:54.204Z</time></trkpt><trkpt lat="43.7071192" lon="10.6443599"><ele>14.0</ele><time>2026-04-26T18:22:56.204Z</time></trkpt><trkpt lat="43.7070545" lon="10.6442475"><ele>14.0</ele><time>2026-04-26T18:22:58.204Z</time></trkpt><trkpt lat="43.7069877" lon="10.6441448"><ele>13.0</ele><time>2026-04-26T18:23:00.203Z</time></trkpt><trkpt lat="43.7069202" lon="10.6440447"><ele>11.999999999999998</ele><time>2026-04-26T18:23:02.204Z</time></trkpt><trkpt lat="43.7068564" lon="10.6439438"><ele>11.0</ele><time>2026-04-26T18:23:04.203Z</time></trkpt><trkpt lat="43.7067937" lon="10.6438437"><ele>10.0</ele><time>2026-04-26T18:23:06.205Z</time></trkpt><trkpt lat="43.706728" lon="10.6437399"><ele>9.0</ele><time>2026-04-26T18:23:08.204Z</time></trkpt><trkpt lat="43.706665" lon="10.6436408"><ele>9.666666666666666</ele><time>2026-04-26T18:23:10.204Z</time></trkpt><trkpt lat="43.7065985" lon="10.6435561"><ele>10.333333333333332</ele><time>2026-04-26T18:23:12.204Z</time></trkpt><trkpt lat="43.7065416" lon="10.6434602"><ele>11.0</ele><time>2026-04-26T18:23:14.203Z</time></trkpt><trkpt lat="43.7064789" lon="10.6433844"><ele>11.666666666666666</ele><time>2026-04-26T18:23:16.204Z</time></trkpt><trkpt lat="43.706421" lon="10.6433005"><ele>12.333333333333332</ele><time>2026-04-26T18:23:18.204Z</time></trkpt><trkpt lat="43.7063672" lon="10.6432191"><ele>13.0</ele><time>2026-04-26T18:23:20.204Z</time></trkpt><trkpt lat="43.7063192" lon="10.6431565"><ele>13.0</ele><time>2026-04-26T18:23:22.203Z</time></trkpt><trkpt lat="43.706272" lon="10.6430485"><ele>13.0</ele><time>2026-04-26T18:23:24.203Z</time></trkpt><trkpt lat="43.7062752" lon="10.6429269"><ele>13.0</ele><time>2026-04-26T18:23:26.204Z</time></trkpt><trkpt lat="43.7063061" lon="10.6427998"><ele>13.0</ele><time>2026-04-26T18:23:28.204Z</time></trkpt><trkpt lat="43.706336" lon="10.6426676"><ele>13.0</ele><time>2026-04-26T18:23:30.204Z</time></trkpt><trkpt lat="43.7063654" lon="10.6425261"><ele>12.200000000000001</ele><time>2026-04-26T18:23:32.204Z</time></trkpt><trkpt lat="43.7063944" lon="10.6423854"><ele>11.4</ele><time>2026-04-26T18:23:34.203Z</time></trkpt><trkpt lat="43.7064243" lon="10.6422395"><ele>10.600000000000001</ele><time>2026-04-26T18:23:36.203Z</time></trkpt><trkpt lat="43.7064401" lon="10.6421037"><ele>9.8</ele><time>2026-04-26T18:23:38.203Z</time></trkpt><trkpt lat="43.7064633" lon="10.6419899"><ele>9.0</ele><time>2026-04-26T18:23:41.204Z</time></trkpt><trkpt lat="43.7065269" lon="10.6420103"><ele>9.0</ele><time>2026-04-26T18:23:43.203Z</time></trkpt><trkpt lat="43.7066021" lon="10.64199"><ele>9.0</ele><time>2026-04-26T18:23:47.204Z</time></trkpt><trkpt lat="43.7065949" lon="10.6419029"><ele>9.0</ele><time>2026-04-26T18:23:49.202Z</time></trkpt><trkpt lat="43.7065932" lon="10.6418004"><ele>9.0</ele><time>2026-04-26T18:23:51.202Z</time></trkpt><trkpt lat="43.7066147" lon="10.6416872"><ele>9.0</ele><time>2026-04-26T18:23:53.202Z</time></trkpt><trkpt lat="43.7066351" lon="10.6415611"><ele>9.0</ele><time>2026-04-26T18:23:55.203Z</time></trkpt><trkpt lat="43.7066662" lon="10.6414312"><ele>8.8</ele><time>2026-04-26T18:23:57.203Z</time></trkpt><trkpt lat="43.70669" lon="10.6412983"><ele>8.600000000000001</ele><time>2026-04-26T18:23:59.202Z</time></trkpt><trkpt lat="43.706717" lon="10.6411683"><ele>8.4</ele><time>2026-04-26T18:24:01.203Z</time></trkpt><trkpt lat="43.7067391" lon="10.6410293"><ele>8.200000000000001</ele><time>2026-04-26T18:24:03.203Z</time></trkpt><trkpt lat="43.7067682" lon="10.6408985"><ele>8.0</ele><time>2026-04-26T18:24:05.203Z</time></trkpt><trkpt lat="43.7067911" lon="10.6407621"><ele>8.0</ele><time>2026-04-26T18:24:07.203Z</time></trkpt><trkpt lat="43.7068167" lon="10.6406241"><ele>8.0</ele><time>2026-04-26T18:24:09.202Z</time></trkpt><trkpt lat="43.7068397" lon="10.6404883"><ele>8.0</ele><time>2026-04-26T18:24:11.202Z</time></trkpt><trkpt lat="43.7068656" lon="10.6403563"><ele>8.0</ele><time>2026-04-26T18:24:13.202Z</time></trkpt><trkpt lat="43.7068917" lon="10.6402299"><ele>8.0</ele><time>2026-04-26T18:24:15.203Z</time></trkpt><trkpt lat="43.7069162" lon="10.6400965"><ele>8.0</ele><time>2026-04-26T18:24:17.204Z</time></trkpt><trkpt lat="43.7069423" lon="10.6399647"><ele>8.0</ele><time>2026-04-26T18:24:19.202Z</time></trkpt><trkpt lat="43.7069719" lon="10.6398255"><ele>8.0</ele><time>2026-04-26T18:24:21.204Z</time></trkpt><trkpt lat="43.7069995" lon="10.6396868"><ele>8.0</ele><time>2026-04-26T18:24:23.204Z</time></trkpt><trkpt lat="43.7070163" lon="10.6395525"><ele>8.0</ele><time>2026-04-26T18:24:25.202Z</time></trkpt><trkpt lat="43.7070452" lon="10.6394184"><ele>8.0</ele><time>2026-04-26T18:24:27.202Z</time></trkpt><trkpt lat="43.7070714" lon="10.6392833"><ele>8.0</ele><time>2026-04-26T18:24:29.202Z</time></trkpt><trkpt lat="43.707096" lon="10.6391507"><ele>8.0</ele><time>2026-04-26T18:24:31.202Z</time></trkpt><trkpt lat="43.7071236" lon="10.6390131"><ele>8.0</ele><time>2026-04-26T18:24:33.203Z</time></trkpt><trkpt lat="43.7071541" lon="10.6388792"><ele>8.0</ele><time>2026-04-26T18:24:35.202Z</time></trkpt><trkpt lat="43.7071786" lon="10.6387508"><ele>7.833333333333333</ele><time>2026-04-26T18:24:37.202Z</time></trkpt><trkpt lat="43.7071995" lon="10.6386255"><ele>7.666666666666666</ele><time>2026-04-26T18:24:39.203Z</time></trkpt><trkpt lat="43.7072198" lon="10.638507"><ele>7.5</ele><time>2026-04-26T18:24:41.203Z</time></trkpt><trkpt lat="43.7072278" lon="10.6383936"><ele>7.333333333333334</ele><time>2026-04-26T18:24:43.202Z</time></trkpt><trkpt lat="43.7072349" lon="10.6382877"><ele>7.166666666666667</ele><time>2026-04-26T18:24:45.203Z</time></trkpt><trkpt lat="43.7072486" lon="10.6381956"><ele>7.0</ele><time>2026-04-26T18:24:47.204Z</time></trkpt><trkpt lat="43.7072688" lon="10.6380987"><ele>7.0</ele><time>2026-04-26T18:24:49.203Z</time></trkpt><trkpt lat="43.7072878" lon="10.637988"><ele>6.999999999999999</ele><time>2026-04-26T18:24:51.202Z</time></trkpt><trkpt lat="43.7073144" lon="10.6378646"><ele>6.999999999999999</ele><time>2026-04-26T18:24:53.202Z</time></trkpt><trkpt lat="43.7073385" lon="10.6377451"><ele>7.0</ele><time>2026-04-26T18:24:55.203Z</time></trkpt><trkpt lat="43.7073714" lon="10.6376229"><ele>7.0</ele><time>2026-04-26T18:24:57.203Z</time></trkpt><trkpt lat="43.7074239" lon="10.6375065"><ele>7.25</ele><time>2026-04-26T18:24:59.202Z</time></trkpt><trkpt lat="43.7074594" lon="10.6373552"><ele>7.5</ele><time>2026-04-26T18:25:01.202Z</time></trkpt><trkpt lat="43.7074984" lon="10.6371932"><ele>7.75</ele><time>2026-04-26T18:25:03.204Z</time></trkpt><trkpt lat="43.7075303" lon="10.6370331"><ele>8.0</ele><time>2026-04-26T18:25:05.203Z</time></trkpt><trkpt lat="43.707567" lon="10.6368706"><ele>8.0</ele><time>2026-04-26T18:25:07.202Z</time></trkpt><trkpt lat="43.7075864" lon="10.6367119"><ele>8.0</ele><time>2026-04-26T18:25:09.203Z</time></trkpt><trkpt lat="43.7076007" lon="10.6365551"><ele>8.0</ele><time>2026-04-26T18:25:11.202Z</time></trkpt><trkpt lat="43.7076115" lon="10.6364216"><ele>8.0</ele><time>2026-04-26T18:25:13.203Z</time></trkpt><trkpt lat="43.7076285" lon="10.6363106"><ele>8.0</ele><time>2026-04-26T18:25:15.201Z</time></trkpt><trkpt lat="43.7076868" lon="10.6362269"><ele>8.166666666666666</ele><time>2026-04-26T18:25:17.202Z</time></trkpt><trkpt lat="43.707765" lon="10.6361714"><ele>8.333333333333332</ele><time>2026-04-26T18:25:19.202Z</time></trkpt><trkpt lat="43.7078143" lon="10.6360828"><ele>8.5</ele><time>2026-04-26T18:25:21.202Z</time></trkpt><trkpt lat="43.7077957" lon="10.6359816"><ele>8.666666666666666</ele><time>2026-04-26T18:25:23.202Z</time></trkpt><trkpt lat="43.707762" lon="10.6358827"><ele>8.833333333333334</ele><time>2026-04-26T18:25:25.201Z</time></trkpt><trkpt lat="43.7077312" lon="10.6357771"><ele>9.0</ele><time>2026-04-26T18:25:27.201Z</time></trkpt><trkpt lat="43.7077472" lon="10.6356635"><ele>9.2</ele><time>2026-04-26T18:25:29.201Z</time></trkpt><trkpt lat="43.7077673" lon="10.6355449"><ele>9.4</ele><time>2026-04-26T18:25:31.202Z</time></trkpt><trkpt lat="43.7077911" lon="10.6354259"><ele>9.6</ele><time>2026-04-26T18:25:33.202Z</time></trkpt><trkpt lat="43.7078163" lon="10.635302"><ele>9.8</ele><time>2026-04-26T18:25:35.203Z</time></trkpt><trkpt lat="43.7078392" lon="10.6351733"><ele>10.0</ele><time>2026-04-26T18:25:37.201Z</time></trkpt><trkpt lat="43.7078581" lon="10.6350445"><ele>10.0</ele><time>2026-04-26T18:25:39.201Z</time></trkpt><trkpt lat="43.7078801" lon="10.6349186"><ele>10.0</ele><time>2026-04-26T18:25:41.202Z</time></trkpt><trkpt lat="43.7079047" lon="10.6347876"><ele>10.0</ele><time>2026-04-26T18:25:43.201Z</time></trkpt><trkpt lat="43.7079312" lon="10.6346588"><ele>10.0</ele><time>2026-04-26T18:25:45.201Z</time></trkpt><trkpt lat="43.7079505" lon="10.6345325"><ele>10.0</ele><time>2026-04-26T18:25:47.201Z</time></trkpt><trkpt lat="43.7079752" lon="10.6344106"><ele>10.0</ele><time>2026-04-26T18:25:49.202Z</time></trkpt><trkpt lat="43.7079986" lon="10.6342844"><ele>10.0</ele><time>2026-04-26T18:25:51.202Z</time></trkpt><trkpt lat="43.7080223" lon="10.6341524"><ele>10.0</ele><time>2026-04-26T18:25:53.202Z</time></trkpt><trkpt lat="43.7080482" lon="10.6340207"><ele>10.0</ele><time>2026-04-26T18:25:55.201Z</time></trkpt><trkpt lat="43.7080746" lon="10.6338831"><ele>10.0</ele><time>2026-04-26T18:25:57.202Z</time></trkpt><trkpt lat="43.708097" lon="10.633749"><ele>10.0</ele><time>2026-04-26T18:25:59.202Z</time></trkpt><trkpt lat="43.7081178" lon="10.6336194"><ele>10.0</ele><time>2026-04-26T18:26:01.202Z</time></trkpt><trkpt lat="43.7081409" lon="10.6334905"><ele>10.0</ele><time>2026-04-26T18:26:03.202Z</time></trkpt><trkpt lat="43.708165" lon="10.6333639"><ele>10.0</ele><time>2026-04-26T18:26:05.201Z</time></trkpt><trkpt lat="43.708191" lon="10.633238"><ele>10.0</ele><time>2026-04-26T18:26:07.202Z</time></trkpt><trkpt lat="43.7082152" lon="10.6331036"><ele>10.0</ele><time>2026-04-26T18:26:09.203Z</time></trkpt><trkpt lat="43.7082414" lon="10.6329732"><ele>10.0</ele><time>2026-04-26T18:26:11.202Z</time></trkpt><trkpt lat="43.7082684" lon="10.6328401"><ele>10.0</ele><time>2026-04-26T18:26:13.202Z</time></trkpt><trkpt lat="43.7082955" lon="10.6327103"><ele>10.0</ele><time>2026-04-26T18:26:15.203Z</time></trkpt><trkpt lat="43.7083197" lon="10.6325791"><ele>10.0</ele><time>2026-04-26T18:26:17.201Z</time></trkpt><trkpt lat="43.7083432" lon="10.6324501"><ele>10.0</ele><time>2026-04-26T18:26:19.202Z</time></trkpt><trkpt lat="43.7083591" lon="10.6323249"><ele>10.0</ele><time>2026-04-26T18:26:21.202Z</time></trkpt><trkpt lat="43.7083825" lon="10.6321992"><ele>10.0</ele><time>2026-04-26T18:26:23.202Z</time></trkpt><trkpt lat="43.7084077" lon="10.6320712"><ele>10.0</ele><time>2026-04-26T18:26:25.202Z</time></trkpt><trkpt lat="43.7084287" lon="10.6319423"><ele>10.0</ele><time>2026-04-26T18:26:27.202Z</time></trkpt><trkpt lat="43.7084548" lon="10.6318112"><ele>10.2</ele><time>2026-04-26T18:26:29.201Z</time></trkpt><trkpt lat="43.7084831" lon="10.6316833"><ele>10.4</ele><time>2026-04-26T18:26:31.201Z</time></trkpt><trkpt lat="43.7085069" lon="10.6315519"><ele>10.600000000000001</ele><time>2026-04-26T18:26:33.202Z</time></trkpt><trkpt lat="43.7085292" lon="10.6314222"><ele>10.8</ele><time>2026-04-26T18:26:35.201Z</time></trkpt><trkpt lat="43.7085552" lon="10.6312943"><ele>11.0</ele><time>2026-04-26T18:26:37.201Z</time></trkpt><trkpt lat="43.7085784" lon="10.6311617"><ele>10.600000000000001</ele><time>2026-04-26T18:26:39.201Z</time></trkpt><trkpt lat="43.7086052" lon="10.6310281"><ele>10.200000000000001</ele><time>2026-04-26T18:26:41.201Z</time></trkpt><trkpt lat="43.7086264" lon="10.6309012"><ele>9.8</ele><time>2026-04-26T18:26:43.2Z</time></trkpt><trkpt lat="43.7086509" lon="10.6307774"><ele>9.4</ele><time>2026-04-26T18:26:45.201Z</time></trkpt><trkpt lat="43.7086721" lon="10.6306551"><ele>9.0</ele><time>2026-04-26T18:26:47.2Z</time></trkpt><trkpt lat="43.7086956" lon="10.6305372"><ele>9.0</ele><time>2026-04-26T18:26:49.2Z</time></trkpt><trkpt lat="43.7087121" lon="10.630423"><ele>9.0</ele><time>2026-04-26T18:26:51.201Z</time></trkpt><trkpt lat="43.7087339" lon="10.630305"><ele>9.0</ele><time>2026-04-26T18:26:53.201Z</time></trkpt><trkpt lat="43.7087561" lon="10.6301825"><ele>9.0</ele><time>2026-04-26T18:26:55.201Z</time></trkpt><trkpt lat="43.7087758" lon="10.630064"><ele>9.0</ele><time>2026-04-26T18:26:57.201Z</time></trkpt><trkpt lat="43.708794" lon="10.6299458"><ele>9.0</ele><time>2026-04-26T18:26:59.2Z</time></trkpt><trkpt lat="43.7088154" lon="10.6298393"><ele>9.333333333333334</ele><time>2026-04-26T18:27:01.201Z</time></trkpt><trkpt lat="43.7088299" lon="10.6297383"><ele>9.666666666666666</ele><time>2026-04-26T18:27:03.2Z</time></trkpt><trkpt lat="43.7088479" lon="10.6296259"><ele>10.0</ele><time>2026-04-26T18:27:05.201Z</time></trkpt><trkpt lat="43.7088701" lon="10.6295075"><ele>10.333333333333332</ele><time>2026-04-26T18:27:07.201Z</time></trkpt><trkpt lat="43.7089055" lon="10.6293882"><ele>10.666666666666666</ele><time>2026-04-26T18:27:09.201Z</time></trkpt><trkpt lat="43.7089299" lon="10.6292716"><ele>11.0</ele><time>2026-04-26T18:27:11.2Z</time></trkpt><trkpt lat="43.708959" lon="10.6291474"><ele>11.200000000000001</ele><time>2026-04-26T18:27:13.201Z</time></trkpt><trkpt lat="43.7089827" lon="10.6290169"><ele>11.4</ele><time>2026-04-26T18:27:15.2Z</time></trkpt><trkpt lat="43.7090062" lon="10.6288964"><ele>11.6</ele><time>2026-04-26T18:27:17.201Z</time></trkpt><trkpt lat="43.7090361" lon="10.6287738"><ele>11.8</ele><time>2026-04-26T18:27:19.2Z</time></trkpt><trkpt lat="43.7090528" lon="10.6286516"><ele>12.0</ele><time>2026-04-26T18:27:21.2Z</time></trkpt><trkpt lat="43.7090768" lon="10.6285363"><ele>12.0</ele><time>2026-04-26T18:27:23.2Z</time></trkpt><trkpt lat="43.7090948" lon="10.6284282"><ele>12.0</ele><time>2026-04-26T18:27:25.201Z</time></trkpt><trkpt lat="43.7091105" lon="10.6283262"><ele>12.0</ele><time>2026-04-26T18:27:27.2Z</time></trkpt><trkpt lat="43.7091297" lon="10.6282254"><ele>12.0</ele><time>2026-04-26T18:27:29.2Z</time></trkpt><trkpt lat="43.7091502" lon="10.6281288"><ele>12.0</ele><time>2026-04-26T18:27:31.201Z</time></trkpt><trkpt lat="43.7091641" lon="10.628027"><ele>12.0</ele><time>2026-04-26T18:27:33.202Z</time></trkpt><trkpt lat="43.7091829" lon="10.6279208"><ele>12.0</ele><time>2026-04-26T18:27:35.2Z</time></trkpt><trkpt lat="43.7092032" lon="10.6278188"><ele>12.0</ele><time>2026-04-26T18:27:37.201Z</time></trkpt><trkpt lat="43.7092203" lon="10.6277222"><ele>12.0</ele><time>2026-04-26T18:27:39.201Z</time></trkpt><trkpt lat="43.7092341" lon="10.6276184"><ele>12.0</ele><time>2026-04-26T18:27:41.202Z</time></trkpt><trkpt lat="43.7092512" lon="10.6275072"><ele>12.0</ele><time>2026-04-26T18:27:43.202Z</time></trkpt><trkpt lat="43.7092757" lon="10.627396"><ele>12.0</ele><time>2026-04-26T18:27:45.201Z</time></trkpt><trkpt lat="43.7092989" lon="10.6272889"><ele>11.833333333333334</ele><time>2026-04-26T18:27:47.2Z</time></trkpt><trkpt lat="43.7093174" lon="10.6271704"><ele>11.666666666666666</ele><time>2026-04-26T18:27:49.2Z</time></trkpt><trkpt lat="43.7093392" lon="10.6270609"><ele>11.5</ele><time>2026-04-26T18:27:51.2Z</time></trkpt><trkpt lat="43.7093621" lon="10.626947"><ele>11.333333333333332</ele><time>2026-04-26T18:27:53.201Z</time></trkpt><trkpt lat="43.7093842" lon="10.6268315"><ele>11.166666666666666</ele><time>2026-04-26T18:27:55.2Z</time></trkpt><trkpt lat="43.7094064" lon="10.626715"><ele>11.0</ele><time>2026-04-26T18:27:57.2Z</time></trkpt><trkpt lat="43.7094263" lon="10.6266011"><ele>11.0</ele><time>2026-04-26T18:27:59.2Z</time></trkpt><trkpt lat="43.7094478" lon="10.6264966"><ele>11.0</ele><time>2026-04-26T18:28:01.199Z</time></trkpt><trkpt lat="43.7094581" lon="10.6263935"><ele>11.0</ele><time>2026-04-26T18:28:03.199Z</time></trkpt><trkpt lat="43.7094866" lon="10.6262911"><ele>11.0</ele><time>2026-04-26T18:28:05.199Z</time></trkpt><trkpt lat="43.7095102" lon="10.6261844"><ele>11.0</ele><time>2026-04-26T18:28:07.199Z</time></trkpt><trkpt lat="43.7095305" lon="10.6260783"><ele>11.0</ele><time>2026-04-26T18:28:09.2Z</time></trkpt><trkpt lat="43.7095484" lon="10.6259791"><ele>11.0</ele><time>2026-04-26T18:28:11.2Z</time></trkpt><trkpt lat="43.7095705" lon="10.6258873"><ele>11.0</ele><time>2026-04-26T18:28:13.2Z</time></trkpt><trkpt lat="43.7095936" lon="10.6257962"><ele>11.0</ele><time>2026-04-26T18:28:15.199Z</time></trkpt><trkpt lat="43.7096107" lon="10.6256973"><ele>11.0</ele><time>2026-04-26T18:28:17.199Z</time></trkpt><trkpt lat="43.7096273" lon="10.6255938"><ele>11.0</ele><time>2026-04-26T18:28:19.2Z</time></trkpt><trkpt lat="43.7096467" lon="10.6254865"><ele>11.0</ele><time>2026-04-26T18:28:21.2Z</time></trkpt><trkpt lat="43.7096658" lon="10.6253769"><ele>11.0</ele><time>2026-04-26T18:28:23.2Z</time></trkpt><trkpt lat="43.7096886" lon="10.6252654"><ele>11.0</ele><time>2026-04-26T18:28:25.2Z</time></trkpt><trkpt lat="43.709707" lon="10.625158"><ele>11.0</ele><time>2026-04-26T18:28:27.199Z</time></trkpt><trkpt lat="43.7097232" lon="10.6250499"><ele>11.0</ele><time>2026-04-26T18:28:29.2Z</time></trkpt><trkpt lat="43.709727" lon="10.6249467"><ele>11.0</ele><time>2026-04-26T18:28:31.199Z</time></trkpt><trkpt lat="43.7097353" lon="10.6248525"><ele>11.0</ele><time>2026-04-26T18:28:33.2Z</time></trkpt><trkpt lat="43.7097469" lon="10.6247447"><ele>11.0</ele><time>2026-04-26T18:28:35.201Z</time></trkpt><trkpt lat="43.7097737" lon="10.6246313"><ele>11.0</ele><time>2026-04-26T18:28:37.2Z</time></trkpt><trkpt lat="43.7097969" lon="10.6245112"><ele>11.0</ele><time>2026-04-26T18:28:39.199Z</time></trkpt><trkpt lat="43.7098241" lon="10.6243889"><ele>11.0</ele><time>2026-04-26T18:28:41.201Z</time></trkpt><trkpt lat="43.7098457" lon="10.6242661"><ele>11.0</ele><time>2026-04-26T18:28:43.199Z</time></trkpt><trkpt lat="43.7098648" lon="10.6241397"><ele>11.333333333333332</ele><time>2026-04-26T18:28:45.2Z</time></trkpt><trkpt lat="43.7098868" lon="10.6240178"><ele>11.666666666666666</ele><time>2026-04-26T18:28:47.201Z</time></trkpt><trkpt lat="43.709911" lon="10.6239136"><ele>12.0</ele><time>2026-04-26T18:28:49.2Z</time></trkpt><trkpt lat="43.7099846" lon="10.6238693"><ele>12.333333333333332</ele><time>2026-04-26T18:28:51.2Z</time></trkpt><trkpt lat="43.7100574" lon="10.6239216"><ele>12.666666666666666</ele><time>2026-04-26T18:28:53.201Z</time></trkpt><trkpt lat="43.7100815" lon="10.6240329"><ele>13.0</ele><time>2026-04-26T18:28:55.2Z</time></trkpt><trkpt lat="43.7101389" lon="10.6240861"><ele>12.999999999999998</ele><time>2026-04-26T18:28:57.2Z</time></trkpt><trkpt lat="43.7102141" lon="10.6240854"><ele>13.0</ele><time>2026-04-26T18:28:59.2Z</time></trkpt><trkpt lat="43.7102991" lon="10.6241078"><ele>13.0</ele><time>2026-04-26T18:29:01.2Z</time></trkpt><trkpt lat="43.7103831" lon="10.6241319"><ele>13.0</ele><time>2026-04-26T18:29:03.2Z</time></trkpt><trkpt lat="43.7104674" lon="10.6241678"><ele>12.999999999999998</ele><time>2026-04-26T18:29:05.199Z</time></trkpt><trkpt lat="43.7105551" lon="10.624201"><ele>13.0</ele><time>2026-04-26T18:29:07.199Z</time></trkpt><trkpt lat="43.7106403" lon="10.6242298"><ele>12.714285714285714</ele><time>2026-04-26T18:29:09.201Z</time></trkpt><trkpt lat="43.7107215" lon="10.6242345"><ele>12.428571428571429</ele><time>2026-04-26T18:29:11.199Z</time></trkpt><trkpt lat="43.7107993" lon="10.6242411"><ele>12.142857142857142</ele><time>2026-04-26T18:29:13.2Z</time></trkpt><trkpt lat="43.7108621" lon="10.624269"><ele>11.857142857142858</ele><time>2026-04-26T18:29:15.198Z</time></trkpt><trkpt lat="43.7109294" lon="10.6242845"><ele>11.571428571428571</ele><time>2026-04-26T18:29:17.199Z</time></trkpt><trkpt lat="43.7110049" lon="10.6242873"><ele>11.285714285714286</ele><time>2026-04-26T18:29:19.199Z</time></trkpt><trkpt lat="43.7110817" lon="10.6242735"><ele>11.0</ele><time>2026-04-26T18:29:21.199Z</time></trkpt><trkpt lat="43.7111606" lon="10.6242526"><ele>11.0</ele><time>2026-04-26T18:29:23.199Z</time></trkpt><trkpt lat="43.7112388" lon="10.6242327"><ele>11.0</ele><time>2026-04-26T18:29:25.199Z</time></trkpt><trkpt lat="43.711319" lon="10.6242049"><ele>11.0</ele><time>2026-04-26T18:29:27.199Z</time></trkpt><trkpt lat="43.7113975" lon="10.6241576"><ele>11.0</ele><time>2026-04-26T18:29:29.198Z</time></trkpt><trkpt lat="43.7114773" lon="10.6241153"><ele>11.0</ele><time>2026-04-26T18:29:31.2Z</time></trkpt><trkpt lat="43.7115562" lon="10.6240632"><ele>11.0</ele><time>2026-04-26T18:29:33.199Z</time></trkpt><trkpt lat="43.7116311" lon="10.6240012"><ele>11.0</ele><time>2026-04-26T18:29:35.199Z</time></trkpt><trkpt lat="43.7117097" lon="10.6239277"><ele>11.0</ele><time>2026-04-26T18:29:37.198Z</time></trkpt><trkpt lat="43.7117924" lon="10.623902"><ele>11.0</ele><time>2026-04-26T18:29:39.198Z</time></trkpt><trkpt lat="43.7118765" lon="10.623929"><ele>11.0</ele><time>2026-04-26T18:29:41.198Z</time></trkpt><trkpt lat="43.7119532" lon="10.62398"><ele>11.0</ele><time>2026-04-26T18:29:43.198Z</time></trkpt><trkpt lat="43.7120258" lon="10.6240476"><ele>11.0</ele><time>2026-04-26T18:29:45.2Z</time></trkpt><trkpt lat="43.7121063" lon="10.6241004"><ele>11.0</ele><time>2026-04-26T18:29:47.199Z</time></trkpt><trkpt lat="43.7121971" lon="10.6241266"><ele>11.0</ele><time>2026-04-26T18:29:49.2Z</time></trkpt><trkpt lat="43.7122964" lon="10.6241386"><ele>11.0</ele><time>2026-04-26T18:29:51.199Z</time></trkpt><trkpt lat="43.7123947" lon="10.6241325"><ele>11.0</ele><time>2026-04-26T18:29:53.199Z</time></trkpt><trkpt lat="43.7124848" lon="10.62411"><ele>11.0</ele><time>2026-04-26T18:29:55.2Z</time></trkpt><trkpt lat="43.7125728" lon="10.6240879"><ele>11.0</ele><time>2026-04-26T18:29:57.198Z</time></trkpt><trkpt lat="43.712668" lon="10.6240655"><ele>11.0</ele><time>2026-04-26T18:29:59.199Z</time></trkpt><trkpt lat="43.7127488" lon="10.6240367"><ele>11.0</ele><time>2026-04-26T18:30:01.198Z</time></trkpt><trkpt lat="43.7128347" lon="10.6239971"><ele>11.0</ele><time>2026-04-26T18:30:03.199Z</time></trkpt><trkpt lat="43.7129248" lon="10.6239643"><ele>11.0</ele><time>2026-04-26T18:30:05.199Z</time></trkpt><trkpt lat="43.713009" lon="10.6239275"><ele>10.833333333333332</ele><time>2026-04-26T18:30:07.199Z</time></trkpt><trkpt lat="43.713096" lon="10.6238897"><ele>10.666666666666666</ele><time>2026-04-26T18:30:09.198Z</time></trkpt><trkpt lat="43.7131824" lon="10.6238554"><ele>10.5</ele><time>2026-04-26T18:30:11.2Z</time></trkpt><trkpt lat="43.7132647" lon="10.6238279"><ele>10.333333333333334</ele><time>2026-04-26T18:30:13.198Z</time></trkpt><trkpt lat="43.7133347" lon="10.6237869"><ele>10.166666666666668</ele><time>2026-04-26T18:30:15.198Z</time></trkpt><trkpt lat="43.7133697" lon="10.6236913"><ele>10.0</ele><time>2026-04-26T18:30:17.199Z</time></trkpt><trkpt lat="43.7133851" lon="10.623574"><ele>10.166666666666668</ele><time>2026-04-26T18:30:19.199Z</time></trkpt><trkpt lat="43.713398" lon="10.6234582"><ele>10.333333333333334</ele><time>2026-04-26T18:30:21.199Z</time></trkpt><trkpt lat="43.7133984" lon="10.6233403"><ele>10.5</ele><time>2026-04-26T18:30:23.198Z</time></trkpt><trkpt lat="43.7134397" lon="10.6232378"><ele>10.666666666666666</ele><time>2026-04-26T18:30:25.198Z</time></trkpt><trkpt lat="43.7135261" lon="10.6232128"><ele>10.833333333333332</ele><time>2026-04-26T18:30:27.198Z</time></trkpt><trkpt lat="43.7136158" lon="10.62323"><ele>11.0</ele><time>2026-04-26T18:30:29.198Z</time></trkpt><trkpt lat="43.7137063" lon="10.6232498"><ele>11.0</ele><time>2026-04-26T18:30:31.199Z</time></trkpt><trkpt lat="43.7137982" lon="10.6232723"><ele>11.0</ele><time>2026-04-26T18:30:33.199Z</time></trkpt><trkpt lat="43.7138897" lon="10.6233017"><ele>11.0</ele><time>2026-04-26T18:30:35.199Z</time></trkpt><trkpt lat="43.7139631" lon="10.6233962"><ele>11.0</ele><time>2026-04-26T18:30:37.198Z</time></trkpt><trkpt lat="43.7139934" lon="10.6235165"><ele>11.0</ele><time>2026-04-26T18:30:39.197Z</time></trkpt><trkpt lat="43.7140269" lon="10.6236375"><ele>11.200000000000001</ele><time>2026-04-26T18:30:41.198Z</time></trkpt><trkpt lat="43.7140717" lon="10.6237582"><ele>11.4</ele><time>2026-04-26T18:30:43.198Z</time></trkpt><trkpt lat="43.7141224" lon="10.6238724"><ele>11.6</ele><time>2026-04-26T18:30:45.198Z</time></trkpt><trkpt lat="43.7141856" lon="10.6239887"><ele>11.8</ele><time>2026-04-26T18:30:47.198Z</time></trkpt><trkpt lat="43.7142443" lon="10.6241029"><ele>12.0</ele><time>2026-04-26T18:30:49.197Z</time></trkpt><trkpt lat="43.714302" lon="10.6242118"><ele>12.0</ele><time>2026-04-26T18:30:51.198Z</time></trkpt><trkpt lat="43.7143607" lon="10.6243266"><ele>12.0</ele><time>2026-04-26T18:30:53.197Z</time></trkpt><trkpt lat="43.7144196" lon="10.624433"><ele>12.0</ele><time>2026-04-26T18:30:55.198Z</time></trkpt><trkpt lat="43.7144775" lon="10.6245379"><ele>12.0</ele><time>2026-04-26T18:30:57.198Z</time></trkpt><trkpt lat="43.7145297" lon="10.6246466"><ele>12.0</ele><time>2026-04-26T18:30:59.197Z</time></trkpt><trkpt lat="43.7145752" lon="10.6247711"><ele>11.6</ele><time>2026-04-26T18:31:01.199Z</time></trkpt><trkpt lat="43.7146191" lon="10.6248926"><ele>11.2</ele><time>2026-04-26T18:31:03.198Z</time></trkpt><trkpt lat="43.7146534" lon="10.6250207"><ele>10.8</ele><time>2026-04-26T18:31:05.198Z</time></trkpt><trkpt lat="43.714673" lon="10.6251468"><ele>10.4</ele><time>2026-04-26T18:31:07.198Z</time></trkpt><trkpt lat="43.7147331" lon="10.6252437"><ele>10.0</ele><time>2026-04-26T18:31:09.198Z</time></trkpt><trkpt lat="43.7148146" lon="10.6252734"><ele>10.0</ele><time>2026-04-26T18:31:11.198Z</time></trkpt><trkpt lat="43.7148992" lon="10.6252686"><ele>10.0</ele><time>2026-04-26T18:31:13.198Z</time></trkpt><trkpt lat="43.7149834" lon="10.6252623"><ele>10.0</ele><time>2026-04-26T18:31:15.199Z</time></trkpt><trkpt lat="43.7150734" lon="10.6252621"><ele>10.0</ele><time>2026-04-26T18:31:17.197Z</time></trkpt><trkpt lat="43.7151648" lon="10.6252577"><ele>10.0</ele><time>2026-04-26T18:31:19.197Z</time></trkpt><trkpt lat="43.7152584" lon="10.6252529"><ele>10.0</ele><time>2026-04-26T18:31:21.197Z</time></trkpt><trkpt lat="43.7153526" lon="10.6252574"><ele>9.8</ele><time>2026-04-26T18:31:23.197Z</time></trkpt><trkpt lat="43.7154437" lon="10.6252527"><ele>9.6</ele><time>2026-04-26T18:31:25.198Z</time></trkpt><trkpt lat="43.7155399" lon="10.6252412"><ele>9.4</ele><time>2026-04-26T18:31:27.199Z</time></trkpt><trkpt lat="43.7156329" lon="10.6252348"><ele>9.2</ele><time>2026-04-26T18:31:29.198Z</time></trkpt><trkpt lat="43.7157292" lon="10.6252213"><ele>9.0</ele><time>2026-04-26T18:31:31.198Z</time></trkpt><trkpt lat="43.7158185" lon="10.6252347"><ele>9.0</ele><time>2026-04-26T18:31:33.197Z</time></trkpt><trkpt lat="43.7159136" lon="10.6252224"><ele>9.0</ele><time>2026-04-26T18:31:35.197Z</time></trkpt><trkpt lat="43.7160032" lon="10.6252169"><ele>9.0</ele><time>2026-04-26T18:31:37.198Z</time></trkpt><trkpt lat="43.7160999" lon="10.6252196"><ele>9.0</ele><time>2026-04-26T18:31:39.198Z</time></trkpt><trkpt lat="43.7161877" lon="10.6252161"><ele>9.0</ele><time>2026-04-26T18:31:41.197Z</time></trkpt><trkpt lat="43.7162684" lon="10.6252102"><ele>9.0</ele><time>2026-04-26T18:31:43.198Z</time></trkpt><trkpt lat="43.7163352" lon="10.6251871"><ele>9.0</ele><time>2026-04-26T18:31:45.197Z</time></trkpt></trkseg></trk></gpx>